Flood From: 18-02-2018 10:00 Until: 19-02-2018 06:00 warning for: Flood Level: Yellow info button

Although rather usual in this region, locally or potentially dangerous phenomena are expected. (such as local winds, summer thunderstorms, rising streams or high waves) Be aware and pay attention to the latest weather updates, especially if you carry out activities exposed to weather or close to a stream or shoreline. 


Meteo18 Weather Cam more information Meteo18 Weather Cam


Thunder radar more information blitzortung!


Rain radar more information rain snow radar


Visit our other weather sites:

Template documentation
and downloads

And another site



Weather Underground History page Text

Daily Summary for June 19, 2017 Units:  Both    English   Metric
« Previous Day
Next Day »
Daily Weekly Monthly Yearly Custom
  High: Low: Average:
Temperature: TemperatureC °F /  -17.8 °C 16.4 °F /  -8.7 °C 25.5 °F /  -3.6 °C
Dew Point: DewpointC °F /  -17.8 °C 13.7 °F /  -10.2 °C 16.3 °F /  -8.7 °C
Humidity: Humidity % 33 % 59 %
Wind Speed: WindSpeedKMH mph /  0 km/h - 2.3 mph /  3.7 km/h
Wind Gust: WindSpeedGustKMH mph /  0 km/h - -
Wind:- - SSE
Pressure: PressurehPa in /  0 hPa 1016.1 in /  34405.1 hPa -
Precipitation: 0.0 in /  0 mm    
Historical Graphs
 
 
Tabular Data for June 19, 2017
Time Temperature Dew Point Pressure Wind Wind Speed Wind Gust Humidity Rainfall Rate (Hourly)
TemperatureC °F /  -17.8 °C DewpointC °F /  -17.8 °C PressurehPa in /  0 hPa Calm     Humidity % HourlyPrecipMM in /  0 mm
00:02 21.8 °F /  -5.7 °C 15.4 °F /  -9.2 °C 1019.9 in /  34533.8 hPa NE 4.8 mph /  7.7 km/h 12.9 mph /  20.8 km/h 67 % 0.0 in /  0 mm
00:07 21.7 °F /  -5.7 °C 15.3 °F /  -9.3 °C 1019.9 in /  34533.8 hPa NE 6.4 mph /  10.3 km/h 12.9 mph /  20.8 km/h 67 % 0.0 in /  0 mm
00:12 21.7 °F /  -5.7 °C 15.3 °F /  -9.3 °C 1019.9 in /  34533.8 hPa NE 3.2 mph /  5.1 km/h 12.9 mph /  20.8 km/h 67 % 0.0 in /  0 mm
00:17 21.4 °F /  -5.9 °C 15.2 °F /  -9.3 °C 1019.9 in /  34533.8 hPa NE 3.2 mph /  5.1 km/h 12.9 mph /  20.8 km/h 68 % 0.0 in /  0 mm
00:22 21.3 °F /  -5.9 °C 15.2 °F /  -9.3 °C 1019.9 in /  34533.8 hPa Calm   9.7 mph /  15.6 km/h 68 % 0.0 in /  0 mm
00:27 21.1 °F /  -6.1 °C 15.2 °F /  -9.3 °C 1019.9 in /  34533.8 hPa Calm   9.7 mph /  15.6 km/h 69 % 0.0 in /  0 mm
00:32 20.9 °F /  -6.2 °C 15.0 °F /  -9.4 °C 1019.9 in /  34533.8 hPa Calm   9.7 mph /  15.6 km/h 69 % 0.0 in /  0 mm
00:42 20.5 °F /  -6.4 °C 15.1 °F /  -9.4 °C 1019.9 in /  34533.8 hPa Calm   4.8 mph /  7.7 km/h 71 % 0.0 in /  0 mm
00:47 20.4 °F /  -6.4 °C 15.2 °F /  -9.3 °C 1019.9 in /  34533.8 hPa Calm   1.6 mph /  2.6 km/h 72 % 0.0 in /  0 mm
00:52 20.6 °F /  -6.3 °C 15.2 °F /  -9.3 °C 1019.9 in /  34533.8 hPa NE 1.6 mph /  2.6 km/h 3.2 mph /  5.1 km/h 71 % 0.0 in /  0 mm
00:57 20.7 °F /  -6.3 °C 15.3 °F /  -9.3 °C 1019.9 in /  34533.8 hPa NE 1.6 mph /  2.6 km/h 6.4 mph /  10.3 km/h 71 % 0.0 in /  0 mm
01:02 20.7 °F /  -6.3 °C 15.3 °F /  -9.3 °C 1019.9 in /  34533.8 hPa NE 1.6 mph /  2.6 km/h 6.4 mph /  10.3 km/h 71 % 0.0 in /  0 mm
01:07 20.7 °F /  -6.3 °C 15.3 °F /  -9.3 °C 1019.5 in /  34520.3 hPa NE 1.6 mph /  2.6 km/h 6.4 mph /  10.3 km/h 71 % 0.0 in /  0 mm
01:12 20.6 °F /  -6.3 °C 15.2 °F /  -9.3 °C 1019.5 in /  34520.3 hPa NE 1.6 mph /  2.6 km/h 4.8 mph /  7.7 km/h 71 % 0.0 in /  0 mm
01:17 20.4 °F /  -6.4 °C 15.2 °F /  -9.3 °C 1019.5 in /  34520.3 hPa Calm   4.8 mph /  7.7 km/h 72 % 0.0 in /  0 mm
01:22 20.2 °F /  -6.6 °C 15.2 °F /  -9.3 °C 1019.5 in /  34520.3 hPa Calm   4.8 mph /  7.7 km/h 73 % 0.0 in /  0 mm
01:27 20.1 °F /  -6.6 °C 15.1 °F /  -9.4 °C 1019.5 in /  34520.3 hPa NNW 1.6 mph /  2.6 km/h 4.8 mph /  7.7 km/h 73 % 0.0 in /  0 mm
01:32 20.1 °F /  -6.6 °C 15.1 °F /  -9.4 °C 1019.2 in /  34510.1 hPa NNW 3.2 mph /  5.1 km/h 4.8 mph /  7.7 km/h 73 % 0.0 in /  0 mm
01:37 20.1 °F /  -6.6 °C 15.1 °F /  -9.4 °C 1019.2 in /  34510.1 hPa NW 1.6 mph /  2.6 km/h 4.8 mph /  7.7 km/h 73 % 0.0 in /  0 mm
01:42 20.1 °F /  -6.6 °C 15.1 °F /  -9.4 °C 1019.5 in /  34520.3 hPa NNW 1.6 mph /  2.6 km/h 4.8 mph /  7.7 km/h 73 % 0.0 in /  0 mm
01:47 19.9 °F /  -6.7 °C 14.9 °F /  -9.5 °C 1019.2 in /  34510.1 hPa Calm   4.8 mph /  7.7 km/h 73 % 0.0 in /  0 mm
01:57 19.7 °F /  -6.8 °C 14.7 °F /  -9.6 °C 1019.2 in /  34510.1 hPa NW 1.6 mph /  2.6 km/h 4.8 mph /  7.7 km/h 73 % 0.0 in /  0 mm
02:02 19.6 °F /  -6.9 °C 14.8 °F /  -9.6 °C 1019.2 in /  34510.1 hPa NNW 1.6 mph /  2.6 km/h 4.8 mph /  7.7 km/h 74 % 0.0 in /  0 mm
02:07 19.5 °F /  -6.9 °C 14.7 °F /  -9.6 °C 1019.2 in /  34510.1 hPa Calm   4.8 mph /  7.7 km/h 74 % 0.0 in /  0 mm
02:12 19.2 °F /  -7.1 °C 14.7 °F /  -9.6 °C 1019.2 in /  34510.1 hPa North 1.6 mph /  2.6 km/h 3.2 mph /  5.1 km/h 75 % 0.0 in /  0 mm
02:17 19.1 °F /  -7.2 °C 14.6 °F /  -9.7 °C 1019.2 in /  34510.1 hPa NNW 1.6 mph /  2.6 km/h 3.2 mph /  5.1 km/h 75 % 0.0 in /  0 mm
02:22 18.9 °F /  -7.3 °C 14.6 °F /  -9.7 °C 1019.2 in /  34510.1 hPa NW 1.6 mph /  2.6 km/h 3.2 mph /  5.1 km/h 76 % 0.0 in /  0 mm
02:27 18.8 °F /  -7.3 °C 14.5 °F /  -9.7 °C 1019.2 in /  34510.1 hPa Calm   3.2 mph /  5.1 km/h 76 % 0.0 in /  0 mm
02:32 18.7 °F /  -7.4 °C 14.6 °F /  -9.7 °C 1019.2 in /  34510.1 hPa Calm   3.2 mph /  5.1 km/h 77 % 0.0 in /  0 mm
02:37 18.6 °F /  -7.4 °C 14.5 °F /  -9.7 °C 1019.2 in /  34510.1 hPa Calm   3.2 mph /  5.1 km/h 77 % 0.0 in /  0 mm
02:42 18.6 °F /  -7.4 °C 14.5 °F /  -9.7 °C 1019.2 in /  34510.1 hPa Calm   1.6 mph /  2.6 km/h 77 % 0.0 in /  0 mm
02:47 18.5 °F /  -7.5 °C 14.6 °F /  -9.7 °C 1019.2 in /  34510.1 hPa NNW 3.2 mph /  5.1 km/h 3.2 mph /  5.1 km/h 78 % 0.0 in /  0 mm
02:52 18.5 °F /  -7.5 °C 14.6 °F /  -9.7 °C 1019.2 in /  34510.1 hPa Calm   3.2 mph /  5.1 km/h 78 % 0.0 in /  0 mm
02:57 18.4 °F /  -7.6 °C 14.5 °F /  -9.7 °C 1019.2 in /  34510.1 hPa NW 1.6 mph /  2.6 km/h 3.2 mph /  5.1 km/h 78 % 0.0 in /  0 mm
03:02 18.3 °F /  -7.6 °C 14.4 °F /  -9.8 °C 1019.2 in /  34510.1 hPa NNW 1.6 mph /  2.6 km/h 3.2 mph /  5.1 km/h 78 % 0.0 in /  0 mm
03:07 18.4 °F /  -7.6 °C 14.5 °F /  -9.7 °C 1019.2 in /  34510.1 hPa NNW 3.2 mph /  5.1 km/h 3.2 mph /  5.1 km/h 78 % 0.0 in /  0 mm
03:12 18.3 °F /  -7.6 °C 14.4 °F /  -9.8 °C 1019.2 in /  34510.1 hPa Calm   3.2 mph /  5.1 km/h 78 % 0.0 in /  0 mm
03:17 18.1 °F /  -7.7 °C 14.4 °F /  -9.8 °C 1019.2 in /  34510.1 hPa NW 1.6 mph /  2.6 km/h 4.8 mph /  7.7 km/h 79 % 0.0 in /  0 mm
03:22 17.9 °F /  -7.8 °C 14.4 °F /  -9.8 °C 1019.2 in /  34510.1 hPa NW 3.2 mph /  5.1 km/h 4.8 mph /  7.7 km/h 80 % 0.0 in /  0 mm
03:27 17.8 °F /  -7.9 °C 14.3 °F /  -9.8 °C 1019.2 in /  34510.1 hPa NNW 3.2 mph /  5.1 km/h 4.8 mph /  7.7 km/h 80 % 0.0 in /  0 mm
03:32 17.9 °F /  -7.8 °C 14.4 °F /  -9.8 °C 1019.2 in /  34510.1 hPa North 1.6 mph /  2.6 km/h 4.8 mph /  7.7 km/h 80 % 0.0 in /  0 mm
03:37 17.8 °F /  -7.9 °C 14.3 °F /  -9.8 °C 1019.2 in /  34510.1 hPa North 1.6 mph /  2.6 km/h 4.8 mph /  7.7 km/h 80 % 0.0 in /  0 mm
03:42 17.8 °F /  -7.9 °C 14.3 °F /  -9.8 °C 1018.8 in /  34496.6 hPa Calm   3.2 mph /  5.1 km/h 80 % 0.0 in /  0 mm
03:47 17.9 °F /  -7.8 °C 14.4 °F /  -9.8 °C 1018.8 in /  34496.6 hPa NNW 1.6 mph /  2.6 km/h 3.2 mph /  5.1 km/h 80 % 0.0 in /  0 mm
03:52 17.9 °F /  -7.8 °C 14.4 °F /  -9.8 °C 1018.8 in /  34496.6 hPa North 1.6 mph /  2.6 km/h 4.8 mph /  7.7 km/h 80 % 0.0 in /  0 mm
03:57 17.8 °F /  -7.9 °C 14.3 °F /  -9.8 °C 1018.8 in /  34496.6 hPa Calm   4.8 mph /  7.7 km/h 80 % 0.0 in /  0 mm
04:02 17.7 °F /  -7.9 °C 14.2 °F /  -9.9 °C 1018.8 in /  34496.6 hPa Calm   4.8 mph /  7.7 km/h 80 % 0.0 in /  0 mm
04:12 17.7 °F /  -7.9 °C 14.2 °F /  -9.9 °C 1018.8 in /  34496.6 hPa Calm   3.2 mph /  5.1 km/h 80 % 0.0 in /  0 mm
04:17 17.7 °F /  -7.9 °C 14.2 °F /  -9.9 °C 1019.2 in /  34510.1 hPa Calm   3.2 mph /  5.1 km/h 80 % 0.0 in /  0 mm
04:22 17.6 °F /  -8 °C 14.1 °F /  -9.9 °C 1018.8 in /  34496.6 hPa Calm   3.2 mph /  5.1 km/h 80 % 0.0 in /  0 mm
04:27 17.4 °F /  -8.1 °C 13.9 °F /  -10.1 °C 1018.8 in /  34496.6 hPa Calm   1.6 mph /  2.6 km/h 80 % 0.0 in /  0 mm
04:32 17.1 °F /  -8.3 °C 13.8 °F /  -10.1 °C 1018.8 in /  34496.6 hPa Calm   1.6 mph /  2.6 km/h 81 % 0.0 in /  0 mm
04:37 17.0 °F /  -8.3 °C 13.9 °F /  -10.1 °C 1018.8 in /  34496.6 hPa Calm   1.6 mph /  2.6 km/h 82 % 0.0 in /  0 mm
04:42 16.7 °F /  -8.5 °C 13.8 °F /  -10.1 °C 1018.8 in /  34496.6 hPa WNW 1.6 mph /  2.6 km/h 1.6 mph /  2.6 km/h 83 % 0.0 in /  0 mm
04:47 16.6 °F /  -8.6 °C 13.9 °F /  -10.1 °C 1018.8 in /  34496.6 hPa Calm   1.6 mph /  2.6 km/h 84 % 0.0 in /  0 mm
04:52 16.7 °F /  -8.5 °C 14.0 °F /  -10 °C 1018.8 in /  34496.6 hPa Calm   1.6 mph /  2.6 km/h 84 % 0.0 in /  0 mm
04:57 16.8 °F /  -8.4 °C 14.1 °F /  -9.9 °C 1018.8 in /  34496.6 hPa Calm   1.6 mph /  2.6 km/h 84 % 0.0 in /  0 mm
05:02 16.9 °F /  -8.4 °C 14.0 °F /  -10 °C 1018.8 in /  34496.6 hPa Calm   1.6 mph /  2.6 km/h 83 % 0.0 in /  0 mm
05:12 16.9 °F /  -8.4 °C 14.0 °F /  -10 °C 1018.8 in /  34496.6 hPa Calm   1.6 mph /  2.6 km/h 83 % 0.0 in /  0 mm
05:17 16.8 °F /  -8.4 °C 13.9 °F /  -10.1 °C 1018.8 in /  34496.6 hPa NNW 1.6 mph /  2.6 km/h   83 % 0.0 in /  0 mm
05:22 16.8 °F /  -8.4 °C 13.9 °F /  -10.1 °C 1018.8 in /  34496.6 hPa Calm     83 % 0.0 in /  0 mm
05:32 16.4 °F /  -8.7 °C 13.7 °F /  -10.2 °C 1018.8 in /  34496.6 hPa North 1.6 mph /  2.6 km/h 3.2 mph /  5.1 km/h 84 % 0.0 in /  0 mm
05:42 16.4 °F /  -8.7 °C 13.7 °F /  -10.2 °C 1018.8 in /  34496.6 hPa NNW 3.2 mph /  5.1 km/h 3.2 mph /  5.1 km/h 84 % 0.0 in /  0 mm
05:47 16.5 °F /  -8.6 °C 13.8 °F /  -10.1 °C 1018.8 in /  34496.6 hPa NW 3.2 mph /  5.1 km/h 3.2 mph /  5.1 km/h 84 % 0.0 in /  0 mm
05:52 16.7 °F /  -8.5 °C 14.0 °F /  -10 °C 1018.8 in /  34496.6 hPa NNW 1.6 mph /  2.6 km/h 3.2 mph /  5.1 km/h 84 % 0.0 in /  0 mm
05:57 16.7 °F /  -8.5 °C 13.8 °F /  -10.1 °C 1018.8 in /  34496.6 hPa Calm   4.8 mph /  7.7 km/h 83 % 0.0 in /  0 mm
06:02 16.6 °F /  -8.6 °C 13.7 °F /  -10.2 °C 1018.8 in /  34496.6 hPa North 3.2 mph /  5.1 km/h 4.8 mph /  7.7 km/h 83 % 0.0 in /  0 mm
06:07 16.5 °F /  -8.6 °C 13.8 °F /  -10.1 °C 1018.8 in /  34496.6 hPa Calm   4.8 mph /  7.7 km/h 84 % 0.0 in /  0 mm
06:12 16.4 °F /  -8.7 °C 13.7 °F /  -10.2 °C 1018.8 in /  34496.6 hPa NNW 3.2 mph /  5.1 km/h 4.8 mph /  7.7 km/h 84 % 0.0 in /  0 mm
06:17 16.4 °F /  -8.7 °C 13.7 °F /  -10.2 °C 1018.8 in /  34496.6 hPa NNE 1.6 mph /  2.6 km/h 4.8 mph /  7.7 km/h 84 % 0.0 in /  0 mm
06:22 16.4 °F /  -8.7 °C 13.7 °F /  -10.2 °C 1018.8 in /  34496.6 hPa North 3.2 mph /  5.1 km/h 4.8 mph /  7.7 km/h 84 % 0.0 in /  0 mm
06:27 16.6 °F /  -8.6 °C 13.9 °F /  -10.1 °C 1018.8 in /  34496.6 hPa North 1.6 mph /  2.6 km/h 4.8 mph /  7.7 km/h 84 % 0.0 in /  0 mm
06:32 16.7 °F /  -8.5 °C 13.8 °F /  -10.1 °C 1018.8 in /  34496.6 hPa North 3.2 mph /  5.1 km/h 4.8 mph /  7.7 km/h 83 % 0.0 in /  0 mm
06:42 17.3 °F /  -8.2 °C 14.2 °F /  -9.9 °C 1018.8 in /  34496.6 hPa NW 3.2 mph /  5.1 km/h 4.8 mph /  7.7 km/h 82 % 0.0 in /  0 mm
06:47 17.6 °F /  -8 °C 14.3 °F /  -9.8 °C 1018.8 in /  34496.6 hPa Calm   4.8 mph /  7.7 km/h 81 % 0.0 in /  0 mm
06:52 17.9 °F /  -7.8 °C 14.6 °F /  -9.7 °C 1018.8 in /  34496.6 hPa Calm   4.8 mph /  7.7 km/h 81 % 0.0 in /  0 mm
06:57 18.0 °F /  -7.8 °C 14.3 °F /  -9.8 °C 1018.8 in /  34496.6 hPa NE 3.2 mph /  5.1 km/h 4.8 mph /  7.7 km/h 79 % 0.0 in /  0 mm
07:02 17.8 °F /  -7.9 °C 14.1 °F /  -9.9 °C 1018.8 in /  34496.6 hPa North 1.6 mph /  2.6 km/h 4.8 mph /  7.7 km/h 79 % 0.0 in /  0 mm
07:12 18.4 °F /  -7.6 °C 14.7 °F /  -9.6 °C 1019.2 in /  34510.1 hPa Calm   3.2 mph /  5.1 km/h 79 % 0.0 in /  0 mm
07:17 18.8 °F /  -7.3 °C 14.7 °F /  -9.6 °C 1019.2 in /  34510.1 hPa North 3.2 mph /  5.1 km/h 3.2 mph /  5.1 km/h 77 % 0.0 in /  0 mm
07:22 19.0 °F /  -7.2 °C 15.1 °F /  -9.4 °C 1019.2 in /  34510.1 hPa Calm   3.2 mph /  5.1 km/h 78 % 0.0 in /  0 mm
07:32 19.2 °F /  -7.1 °C 15.1 °F /  -9.4 °C 1019.2 in /  34510.1 hPa NNE 3.2 mph /  5.1 km/h 3.2 mph /  5.1 km/h 77 % 0.0 in /  0 mm
07:37 19.1 °F /  -7.2 °C 15.0 °F /  -9.4 °C 1019.2 in /  34510.1 hPa NNE 3.2 mph /  5.1 km/h 3.2 mph /  5.1 km/h 77 % 0.0 in /  0 mm
07:42 19.2 °F /  -7.1 °C 15.5 °F /  -9.2 °C 1019.2 in /  34510.1 hPa North 3.2 mph /  5.1 km/h 3.2 mph /  5.1 km/h 79 % 0.0 in /  0 mm
07:47 19.3 °F /  -7.1 °C 15.4 °F /  -9.2 °C 1019.2 in /  34510.1 hPa Calm   4.8 mph /  7.7 km/h 78 % 0.0 in /  0 mm
07:52 19.6 °F /  -6.9 °C 15.5 °F /  -9.2 °C 1019.2 in /  34510.1 hPa NE 1.6 mph /  2.6 km/h 4.8 mph /  7.7 km/h 77 % 0.0 in /  0 mm
08:02 20.1 °F /  -6.6 °C 15.7 °F /  -9.1 °C 1019.2 in /  34510.1 hPa Calm   4.8 mph /  7.7 km/h 76 % 0.0 in /  0 mm
08:12 20.7 °F /  -6.3 °C 15.7 °F /  -9.1 °C 1019.2 in /  34510.1 hPa NNE 3.2 mph /  5.1 km/h 4.8 mph /  7.7 km/h 73 % 0.0 in /  0 mm
08:17 20.9 °F /  -6.2 °C 15.9 °F /  -8.9 °C 1019.2 in /  34510.1 hPa East 1.6 mph /  2.6 km/h 4.8 mph /  7.7 km/h 73 % 0.0 in /  0 mm
08:22 21.2 °F /  -6 °C 16.2 °F /  -8.8 °C 1019.2 in /  34510.1 hPa NNE 3.2 mph /  5.1 km/h 4.8 mph /  7.7 km/h 73 % 0.0 in /  0 mm
08:32 21.9 °F /  -5.6 °C 16.6 °F /  -8.6 °C 1019.2 in /  34510.1 hPa Calm   4.8 mph /  7.7 km/h 72 % 0.0 in /  0 mm
08:37 22.3 °F /  -5.4 °C 16.3 °F /  -8.7 °C 1019.2 in /  34510.1 hPa NNE 3.2 mph /  5.1 km/h 3.2 mph /  5.1 km/h 69 % 0.0 in /  0 mm
08:42 22.5 °F /  -5.3 °C 16.3 °F /  -8.7 °C 1019.2 in /  34510.1 hPa NNE 3.2 mph /  5.1 km/h 3.2 mph /  5.1 km/h 68 % 0.0 in /  0 mm
08:52 23.0 °F /  -5 °C 16.3 °F /  -8.7 °C 1019.2 in /  34510.1 hPa East 3.2 mph /  5.1 km/h 4.8 mph /  7.7 km/h 66 % 0.0 in /  0 mm
09:02 23.4 °F /  -4.8 °C 16.7 °F /  -8.5 °C 1018.8 in /  34496.6 hPa East 1.6 mph /  2.6 km/h 4.8 mph /  7.7 km/h 66 % 0.0 in /  0 mm
09:12 23.8 °F /  -4.6 °C 16.6 °F /  -8.6 °C 1018.8 in /  34496.6 hPa Calm   9.7 mph /  15.6 km/h 64 % 0.0 in /  0 mm
09:22 24.4 °F /  -4.2 °C 16.9 °F /  -8.4 °C 1019.2 in /  34510.1 hPa ESE 3.2 mph /  5.1 km/h 11.3 mph /  18.2 km/h 63 % 0.0 in /  0 mm
09:32 24.3 °F /  -4.3 °C 16.8 °F /  -8.4 °C 1019.2 in /  34510.1 hPa SE 1.6 mph /  2.6 km/h 8.0 mph /  12.9 km/h 63 % 0.0 in /  0 mm
09:42 24.6 °F /  -4.1 °C 17.3 °F /  -8.2 °C 1019.2 in /  34510.1 hPa Calm   8.0 mph /  12.9 km/h 64 % 0.0 in /  0 mm
09:47 24.8 °F /  -4 °C 17.0 °F /  -8.3 °C 1019.2 in /  34510.1 hPa ENE 6.4 mph /  10.3 km/h 9.7 mph /  15.6 km/h 62 % 0.0 in /  0 mm
09:52 24.6 °F /  -4.1 °C 17.3 °F /  -8.2 °C 1019.2 in /  34510.1 hPa SE 3.2 mph /  5.1 km/h 9.7 mph /  15.6 km/h 64 % 0.0 in /  0 mm
10:02 24.8 °F /  -4 °C 17.3 °F /  -8.2 °C 1018.8 in /  34496.6 hPa SSW 1.6 mph /  2.6 km/h 6.4 mph /  10.3 km/h 63 % 0.0 in /  0 mm
10:12 25.1 °F /  -3.8 °C 17.3 °F /  -8.2 °C 1018.8 in /  34496.6 hPa East 3.2 mph /  5.1 km/h 9.7 mph /  15.6 km/h 62 % 0.0 in /  0 mm
10:22 25.6 °F /  -3.6 °C 17.5 °F /  -8.1 °C 1018.8 in /  34496.6 hPa Calm   9.7 mph /  15.6 km/h 61 % 0.0 in /  0 mm
10:32 25.9 °F /  -3.4 °C 18.1 °F /  -7.7 °C 1018.8 in /  34496.6 hPa ENE 3.2 mph /  5.1 km/h 8.0 mph /  12.9 km/h 62 % 0.0 in /  0 mm
10:42 25.7 °F /  -3.5 °C 17.6 °F /  -8 °C 1018.8 in /  34496.6 hPa Calm   6.4 mph /  10.3 km/h 61 % 0.0 in /  0 mm
10:47 26.0 °F /  -3.3 °C 17.9 °F /  -7.8 °C 1018.8 in /  34496.6 hPa ESE 4.8 mph /  7.7 km/h 11.3 mph /  18.2 km/h 61 % 0.0 in /  0 mm
10:52 26.1 °F /  -3.3 °C 17.7 °F /  -7.9 °C 1018.8 in /  34496.6 hPa ENE 1.6 mph /  2.6 km/h 11.3 mph /  18.2 km/h 60 % 0.0 in /  0 mm
11:02 26.8 °F /  -2.9 °C 18.1 °F /  -7.7 °C 1018.5 in /  34486.4 hPa ESE 4.8 mph /  7.7 km/h 8.0 mph /  12.9 km/h 59 % 0.0 in /  0 mm
11:12 27.6 °F /  -2.4 °C 18.9 °F /  -7.3 °C 1018.5 in /  34486.4 hPa East 1.6 mph /  2.6 km/h 8.0 mph /  12.9 km/h 59 % 0.0 in /  0 mm
11:17 28.0 °F /  -2.2 °C 18.7 °F /  -7.4 °C 1018.5 in /  34486.4 hPa Calm   6.4 mph /  10.3 km/h 57 % 0.0 in /  0 mm
11:22 28.2 °F /  -2.1 °C 18.6 °F /  -7.4 °C 1018.5 in /  34486.4 hPa East 3.2 mph /  5.1 km/h 6.4 mph /  10.3 km/h 56 % 0.0 in /  0 mm
11:32 28.4 °F /  -2 °C 18.2 °F /  -7.7 °C 1018.5 in /  34486.4 hPa ESE 8.0 mph /  12.9 km/h 8.0 mph /  12.9 km/h 54 % 0.0 in /  0 mm
11:42 28.2 °F /  -2.1 °C 18.6 °F /  -7.4 °C 1018.5 in /  34486.4 hPa Calm   9.7 mph /  15.6 km/h 56 % 0.0 in /  0 mm
11:47 28.4 °F /  -2 °C 18.2 °F /  -7.7 °C 1018.5 in /  34486.4 hPa ENE 4.8 mph /  7.7 km/h 14.5 mph /  23.3 km/h 54 % 0.0 in /  0 mm
11:52 28.6 °F /  -1.9 °C 18.7 °F /  -7.4 °C 1018.5 in /  34486.4 hPa ESE 3.2 mph /  5.1 km/h 14.5 mph /  23.3 km/h 55 % 0.0 in /  0 mm
12:02 28.8 °F /  -1.8 °C 18.6 °F /  -7.4 °C 1018.5 in /  34486.4 hPa Calm   11.3 mph /  18.2 km/h 54 % 0.0 in /  0 mm
12:12 29.1 °F /  -1.6 °C 18.8 °F /  -7.3 °C 1018.5 in /  34486.4 hPa SE 1.6 mph /  2.6 km/h 11.3 mph /  18.2 km/h 54 % 0.0 in /  0 mm
12:17 29.3 °F /  -1.5 °C 18.4 °F /  -7.6 °C 1018.5 in /  34486.4 hPa SW 3.2 mph /  5.1 km/h 11.3 mph /  18.2 km/h 52 % 0.0 in /  0 mm
12:22 29.6 °F /  -1.3 °C 18.4 °F /  -7.6 °C 1018.5 in /  34486.4 hPa ENE 4.8 mph /  7.7 km/h 8.0 mph /  12.9 km/h 51 % 0.0 in /  0 mm
12:27 29.4 °F /  -1.4 °C 18.2 °F /  -7.7 °C 1018.2 in /  34476.3 hPa SE 3.2 mph /  5.1 km/h 8.0 mph /  12.9 km/h 51 % 0.0 in /  0 mm
12:32 29.7 °F /  -1.3 °C 18.5 °F /  -7.5 °C 1018.2 in /  34476.3 hPa NE 6.4 mph /  10.3 km/h 8.0 mph /  12.9 km/h 51 % 0.0 in /  0 mm
12:42 30.2 °F /  -1 °C 18.0 °F /  -7.8 °C 1018.2 in /  34476.3 hPa ENE 3.2 mph /  5.1 km/h 8.0 mph /  12.9 km/h 48 % 0.0 in /  0 mm
12:47 30.3 °F /  -0.9 °C 17.7 °F /  -7.9 °C 1018.2 in /  34476.3 hPa ENE 8.0 mph /  12.9 km/h 8.0 mph /  12.9 km/h 47 % 0.0 in /  0 mm
12:52 30.2 °F /  -1 °C 18.3 °F /  -7.6 °C 1018.2 in /  34476.3 hPa ENE 6.4 mph /  10.3 km/h 9.7 mph /  15.6 km/h 49 % 0.0 in /  0 mm
12:57 29.8 °F /  -1.2 °C 17.6 °F /  -8 °C 1018.2 in /  34476.3 hPa ENE 6.4 mph /  10.3 km/h 12.9 mph /  20.8 km/h 48 % 0.0 in /  0 mm
13:02 29.9 °F /  -1.2 °C 17.7 °F /  -7.9 °C 1018.2 in /  34476.3 hPa NE 4.8 mph /  7.7 km/h 12.9 mph /  20.8 km/h 48 % 0.0 in /  0 mm
13:07 30.1 °F /  -1.1 °C 17.9 °F /  -7.8 °C 1017.8 in /  34462.7 hPa NE 6.4 mph /  10.3 km/h 12.9 mph /  20.8 km/h 48 % 0.0 in /  0 mm
13:12 30.3 °F /  -0.9 °C 17.4 °F /  -8.1 °C 1018.2 in /  34476.3 hPa East 8.0 mph /  12.9 km/h 12.9 mph /  20.8 km/h 46 % 0.0 in /  0 mm
13:17 30.5 °F /  -0.8 °C 16.5 °F /  -8.6 °C 1017.8 in /  34462.7 hPa WSW 1.6 mph /  2.6 km/h 11.3 mph /  18.2 km/h 43 % 0.0 in /  0 mm
13:22 30.9 °F /  -0.6 °C 16.9 °F /  -8.4 °C 1017.8 in /  34462.7 hPa Calm   9.7 mph /  15.6 km/h 43 % 0.0 in /  0 mm
13:27 31.3 °F /  -0.4 °C 16.9 °F /  -8.4 °C 1017.8 in /  34462.7 hPa ENE 3.2 mph /  5.1 km/h 9.7 mph /  15.6 km/h 42 % 0.0 in /  0 mm
13:32 31.5 °F /  -0.3 °C 17.8 °F /  -7.9 °C 1017.8 in /  34462.7 hPa SW 3.2 mph /  5.1 km/h 9.7 mph /  15.6 km/h 44 % 0.0 in /  0 mm
13:42 31.9 °F /  -0.1 °C 17.8 °F /  -7.9 °C 1017.8 in /  34462.7 hPa SSE 1.6 mph /  2.6 km/h 9.7 mph /  15.6 km/h 43 % 0.0 in /  0 mm
13:52 31.8 °F /  -0.1 °C 17.3 °F /  -8.2 °C 1017.8 in /  34462.7 hPa ENE 6.4 mph /  10.3 km/h 11.3 mph /  18.2 km/h 42 % 0.0 in /  0 mm
13:57 31.6 °F /  -0.2 °C 17.1 °F /  -8.3 °C 1017.8 in /  34462.7 hPa ENE 4.8 mph /  7.7 km/h 12.9 mph /  20.8 km/h 42 % 0.0 in /  0 mm
14:02 31.8 °F /  -0.1 °C 17.3 °F /  -8.2 °C 1017.5 in /  34452.6 hPa WSW 1.6 mph /  2.6 km/h 12.9 mph /  20.8 km/h 42 % 0.0 in /  0 mm
14:12 31.7 °F /  -0.2 °C 16.8 °F /  -8.4 °C 1017.5 in /  34452.6 hPa East 3.2 mph /  5.1 km/h 11.3 mph /  18.2 km/h 41 % 0.0 in /  0 mm
14:17 31.6 °F /  -0.2 °C 17.5 °F /  -8.1 °C 1017.5 in /  34452.6 hPa ENE 1.6 mph /  2.6 km/h 11.3 mph /  18.2 km/h 43 % 0.0 in /  0 mm
14:22 31.7 °F /  -0.2 °C 17.6 °F /  -8 °C 1017.5 in /  34452.6 hPa ENE 1.6 mph /  2.6 km/h 11.3 mph /  18.2 km/h 43 % 0.0 in /  0 mm
14:27 31.6 °F /  -0.2 °C 17.5 °F /  -8.1 °C 1017.5 in /  34452.6 hPa ENE 8.0 mph /  12.9 km/h 16.1 mph /  25.9 km/h 43 % 0.0 in /  0 mm
14:32 31.6 °F /  -0.2 °C 17.1 °F /  -8.3 °C 1017.5 in /  34452.6 hPa West 3.2 mph /  5.1 km/h 16.1 mph /  25.9 km/h 42 % 0.0 in /  0 mm
14:37 31.9 °F /  -0.1 °C 17.8 °F /  -7.9 °C 1017.5 in /  34452.6 hPa SSE 6.4 mph /  10.3 km/h 16.1 mph /  25.9 km/h 43 % 0.0 in /  0 mm
14:42 32.4 °F /  0.2 °C 17.8 °F /  -7.9 °C 1017.5 in /  34452.6 hPa SE 3.2 mph /  5.1 km/h 16.1 mph /  25.9 km/h 42 % 0.0 in /  0 mm
14:47 32.5 °F /  0.3 °C 17.5 °F /  -8.1 °C 1017.2 in /  34442.4 hPa East 4.8 mph /  7.7 km/h 16.1 mph /  25.9 km/h 41 % 0.0 in /  0 mm
14:52 32.6 °F /  0.3 °C 17.6 °F /  -8 °C 1017.2 in /  34442.4 hPa SE 1.6 mph /  2.6 km/h 16.1 mph /  25.9 km/h 41 % 0.0 in /  0 mm
14:57 32.9 °F /  0.5 °C 17.9 °F /  -7.8 °C 1017.2 in /  34442.4 hPa SSE 6.4 mph /  10.3 km/h 12.9 mph /  20.8 km/h 41 % 0.0 in /  0 mm
15:02 32.7 °F /  0.4 °C 17.7 °F /  -7.9 °C 1017.2 in /  34442.4 hPa SE 1.6 mph /  2.6 km/h 12.9 mph /  20.8 km/h 41 % 0.0 in /  0 mm
15:07 33.1 °F /  0.6 °C 17.7 °F /  -7.9 °C 1017.2 in /  34442.4 hPa ENE 3.2 mph /  5.1 km/h 12.9 mph /  20.8 km/h 40 % 0.0 in /  0 mm
15:12 32.7 °F /  0.4 °C 17.7 °F /  -7.9 °C 1017.2 in /  34442.4 hPa East 9.7 mph /  15.6 km/h 11.3 mph /  18.2 km/h 41 % 0.0 in /  0 mm
15:22 33.4 °F /  0.8 °C 18.3 °F /  -7.6 °C 1017.2 in /  34442.4 hPa SSW 4.8 mph /  7.7 km/h 11.3 mph /  18.2 km/h 41 % 0.0 in /  0 mm
15:27 33.4 °F /  0.8 °C 17.1 °F /  -8.3 °C 1017.2 in /  34442.4 hPa Calm   11.3 mph /  18.2 km/h 38 % 0.0 in /  0 mm
15:32 33.7 °F /  0.9 °C 18.2 °F /  -7.7 °C 1017.2 in /  34442.4 hPa ESE 4.8 mph /  7.7 km/h 11.3 mph /  18.2 km/h 40 % 0.0 in /  0 mm
15:37 33.6 °F /  0.9 °C 17.7 °F /  -7.9 °C 1017.2 in /  34442.4 hPa ENE 11.3 mph /  18.2 km/h 11.3 mph /  18.2 km/h 39 % 0.0 in /  0 mm
15:42 33.4 °F /  0.8 °C 17.6 °F /  -8 °C 1017.2 in /  34442.4 hPa SE 9.7 mph /  15.6 km/h 14.5 mph /  23.3 km/h 39 % 0.0 in /  0 mm
15:47 33.6 °F /  0.9 °C 17.7 °F /  -7.9 °C 1017.2 in /  34442.4 hPa ESE 1.6 mph /  2.6 km/h 14.5 mph /  23.3 km/h 39 % 0.0 in /  0 mm
15:52 33.4 °F /  0.8 °C 17.1 °F /  -8.3 °C 1017.2 in /  34442.4 hPa SW 4.8 mph /  7.7 km/h 14.5 mph /  23.3 km/h 38 % 0.0 in /  0 mm
16:02 33.5 °F /  0.8 °C 16.8 °F /  -8.4 °C 1016.8 in /  34428.8 hPa SSW 4.8 mph /  7.7 km/h 12.9 mph /  20.8 km/h 37 % 0.0 in /  0 mm
16:07 33.4 °F /  0.8 °C 17.1 °F /  -8.3 °C 1017.2 in /  34442.4 hPa ESE 4.8 mph /  7.7 km/h 11.3 mph /  18.2 km/h 38 % 0.0 in /  0 mm
16:12 33.1 °F /  0.6 °C 16.5 °F /  -8.6 °C 1016.8 in /  34428.8 hPa East 6.4 mph /  10.3 km/h 14.5 mph /  23.3 km/h 37 % 0.0 in /  0 mm
16:17 33.2 °F /  0.7 °C 16.5 °F /  -8.6 °C 1017.2 in /  34442.4 hPa SSE 3.2 mph /  5.1 km/h 14.5 mph /  23.3 km/h 37 % 0.0 in /  0 mm
16:22 33.4 °F /  0.8 °C 16.7 °F /  -8.5 °C 1016.8 in /  34428.8 hPa East 4.8 mph /  7.7 km/h 14.5 mph /  23.3 km/h 37 % 0.0 in /  0 mm
16:32 33.3 °F /  0.7 °C 16.2 °F /  -8.8 °C 1016.8 in /  34428.8 hPa ENE 3.2 mph /  5.1 km/h 11.3 mph /  18.2 km/h 36 % 0.0 in /  0 mm
16:37 33.4 °F /  0.8 °C 16.7 °F /  -8.5 °C 1016.8 in /  34428.8 hPa ENE 9.7 mph /  15.6 km/h 11.3 mph /  18.2 km/h 37 % 0.0 in /  0 mm
16:42 33.5 °F /  0.8 °C 15.9 °F /  -8.9 °C 1016.8 in /  34428.8 hPa SSE 4.8 mph /  7.7 km/h 12.9 mph /  20.8 km/h 35 % 0.0 in /  0 mm
16:47 33.4 °F /  0.8 °C 15.8 °F /  -9 °C 1016.8 in /  34428.8 hPa Calm   12.9 mph /  20.8 km/h 35 % 0.0 in /  0 mm
16:52 33.7 °F /  0.9 °C 17.4 °F /  -8.1 °C 1016.8 in /  34428.8 hPa SE 3.2 mph /  5.1 km/h 12.9 mph /  20.8 km/h 38 % 0.0 in /  0 mm
16:57 33.7 °F /  0.9 °C 16.6 °F /  -8.6 °C 1016.8 in /  34428.8 hPa East 3.2 mph /  5.1 km/h 8.0 mph /  12.9 km/h 36 % 0.0 in /  0 mm
17:02 33.7 °F /  0.9 °C 15.7 °F /  -9.1 °C 1016.8 in /  34428.8 hPa SW 4.8 mph /  7.7 km/h 8.0 mph /  12.9 km/h 34 % 0.0 in /  0 mm
17:07 33.7 °F /  0.9 °C 16.1 °F /  -8.8 °C 1016.5 in /  34418.7 hPa East 4.8 mph /  7.7 km/h 6.4 mph /  10.3 km/h 35 % 0.0 in /  0 mm
17:12 33.6 °F /  0.9 °C 16.5 °F /  -8.6 °C 1016.5 in /  34418.7 hPa ESE 3.2 mph /  5.1 km/h 9.7 mph /  15.6 km/h 36 % 0.0 in /  0 mm
17:22 33.4 °F /  0.8 °C 15.8 °F /  -9 °C 1016.5 in /  34418.7 hPa SE 3.2 mph /  5.1 km/h 11.3 mph /  18.2 km/h 35 % 0.0 in /  0 mm
17:27 33.6 °F /  0.9 °C 16.0 °F /  -8.9 °C 1016.5 in /  34418.7 hPa ESE 1.6 mph /  2.6 km/h 11.3 mph /  18.2 km/h 35 % 0.0 in /  0 mm
17:32 33.7 °F /  0.9 °C 16.1 °F /  -8.8 °C 1016.5 in /  34418.7 hPa NE 6.4 mph /  10.3 km/h 11.3 mph /  18.2 km/h 35 % 0.0 in /  0 mm
17:37 33.3 °F /  0.7 °C 15.8 °F /  -9 °C 1016.5 in /  34418.7 hPa Calm   11.3 mph /  18.2 km/h 35 % 0.0 in /  0 mm
17:42 33.6 °F /  0.9 °C 16.0 °F /  -8.9 °C 1016.5 in /  34418.7 hPa ESE 6.4 mph /  10.3 km/h 11.3 mph /  18.2 km/h 35 % 0.0 in /  0 mm
17:47 33.4 °F /  0.8 °C 15.8 °F /  -9 °C 1016.5 in /  34418.7 hPa ENE 8.0 mph /  12.9 km/h 11.3 mph /  18.2 km/h 35 % 0.0 in /  0 mm
17:52 33.2 °F /  0.7 °C 15.7 °F /  -9.1 °C 1016.5 in /  34418.7 hPa East 3.2 mph /  5.1 km/h 11.3 mph /  18.2 km/h 35 % 0.0 in /  0 mm
17:57 33.2 °F /  0.7 °C 15.2 °F /  -9.3 °C 1016.5 in /  34418.7 hPa ESE 4.8 mph /  7.7 km/h 11.3 mph /  18.2 km/h 34 % 0.0 in /  0 mm
18:02 33.3 °F /  0.7 °C 15.8 °F /  -9 °C 1016.1 in /  34405.1 hPa SE 4.8 mph /  7.7 km/h 11.3 mph /  18.2 km/h 35 % 0.0 in /  0 mm
18:12 33.1 °F /  0.6 °C 15.1 °F /  -9.4 °C 1016.5 in /  34418.7 hPa ENE 6.4 mph /  10.3 km/h 12.9 mph /  20.8 km/h 34 % 0.0 in /  0 mm
18:17 33.1 °F /  0.6 °C 15.6 °F /  -9.1 °C 1016.1 in /  34405.1 hPa East 3.2 mph /  5.1 km/h 12.9 mph /  20.8 km/h 35 % 0.0 in /  0 mm
18:22 33.0 °F /  0.6 °C 15.0 °F /  -9.4 °C 1016.1 in /  34405.1 hPa East 4.8 mph /  7.7 km/h 12.9 mph /  20.8 km/h 34 % 0.0 in /  0 mm
18:27 33.1 °F /  0.6 °C 15.1 °F /  -9.4 °C 1016.1 in /  34405.1 hPa East 1.6 mph /  2.6 km/h 12.9 mph /  20.8 km/h 34 % 0.0 in /  0 mm
18:32 33.6 °F /  0.9 °C 16.0 °F /  -8.9 °C 1016.1 in /  34405.1 hPa Calm   9.7 mph /  15.6 km/h 35 % 0.0 in /  0 mm
18:42 33.8 °F /  1 °C 15.3 °F /  -9.3 °C 1016.1 in /  34405.1 hPa East 1.6 mph /  2.6 km/h 8.0 mph /  12.9 km/h 33 % 0.0 in /  0 mm
18:47 33.6 °F /  0.9 °C 15.6 °F /  -9.1 °C 1016.1 in /  34405.1 hPa SE 1.6 mph /  2.6 km/h 6.4 mph /  10.3 km/h 34 % 0.0 in /  0 mm
18:52 33.9 °F /  1.1 °C 15.8 °F /  -9 °C 1016.1 in /  34405.1 hPa East 1.6 mph /  2.6 km/h 6.4 mph /  10.3 km/h 34 % 0.0 in /  0 mm
18:57 33.8 °F /  1 °C 15.7 °F /  -9.1 °C 1016.1 in /  34405.1 hPa Calm   6.4 mph /  10.3 km/h 34 % 0.0 in /  0 mm
19:02 33.8 °F /  1 °C 15.7 °F /  -9.1 °C 1016.1 in /  34405.1 hPa East 1.6 mph /  2.6 km/h 6.4 mph /  10.3 km/h 34 % 0.0 in /  0 mm
19:12 33.6 °F /  0.9 °C 16.5 °F /  -8.6 °C 1016.1 in /  34405.1 hPa SSW 3.2 mph /  5.1 km/h 6.4 mph /  10.3 km/h 36 % 0.0 in /  0 mm
19:22 33.6 °F /  0.9 °C 16.0 °F /  -8.9 °C 1016.1 in /  34405.1 hPa SE 4.8 mph /  7.7 km/h 6.4 mph /  10.3 km/h 35 % 0.0 in /  0 mm
19:32 33.8 °F /  1 °C 17.1 °F /  -8.3 °C 1016.1 in /  34405.1 hPa Calm   6.4 mph /  10.3 km/h 37 % 0.0 in /  0 mm
19:37 33.7 °F /  0.9 °C 17.0 °F /  -8.3 °C 1016.1 in /  34405.1 hPa Calm   4.8 mph /  7.7 km/h 37 % 0.0 in /  0 mm
19:42 33.2 °F /  0.7 °C 17.4 °F /  -8.1 °C 1016.1 in /  34405.1 hPa East 3.2 mph /  5.1 km/h 4.8 mph /  7.7 km/h 39 % 0.0 in /  0 mm
19:47 32.7 °F /  0.4 °C 17.7 °F /  -7.9 °C 1016.1 in /  34405.1 hPa East 4.8 mph /  7.7 km/h 9.7 mph /  15.6 km/h 41 % 0.0 in /  0 mm
19:52 32.3 °F /  0.2 °C 17.7 °F /  -7.9 °C 1016.1 in /  34405.1 hPa East 3.2 mph /  5.1 km/h 9.7 mph /  15.6 km/h 42 % 0.0 in /  0 mm
19:57 32.1 °F /  0.1 °C 17.9 °F /  -7.8 °C 1016.1 in /  34405.1 hPa ENE 3.2 mph /  5.1 km/h 9.7 mph /  15.6 km/h 43 % 0.0 in /  0 mm
20:02 31.9 °F /  -0.1 °C 18.1 °F /  -7.7 °C 1016.1 in /  34405.1 hPa East 4.8 mph /  7.7 km/h 9.7 mph /  15.6 km/h 44 % 0.0 in /  0 mm
20:07 31.8 °F /  -0.1 °C 18.4 °F /  -7.6 °C 1016.1 in /  34405.1 hPa Calm   6.4 mph /  10.3 km/h 45 % 0.0 in /  0 mm
20:12 31.7 °F /  -0.2 °C 18.3 °F /  -7.6 °C 1016.1 in /  34405.1 hPa East 1.6 mph /  2.6 km/h 6.4 mph /  10.3 km/h 45 % 0.0 in /  0 mm
20:17 31.6 °F /  -0.2 °C 18.2 °F /  -7.7 °C 1016.1 in /  34405.1 hPa Calm   6.4 mph /  10.3 km/h 45 % 0.0 in /  0 mm
20:22 31.5 °F /  -0.3 °C 18.1 °F /  -7.7 °C 1016.1 in /  34405.1 hPa East 1.6 mph /  2.6 km/h 6.4 mph /  10.3 km/h 45 % 0.0 in /  0 mm
20:27 31.4 °F /  -0.3 °C 18.4 °F /  -7.6 °C 1016.1 in /  34405.1 hPa ENE 1.6 mph /  2.6 km/h 6.4 mph /  10.3 km/h 46 % 0.0 in /  0 mm
20:32 31.4 °F /  -0.3 °C 18.0 °F /  -7.8 °C 1016.1 in /  34405.1 hPa ENE 3.2 mph /  5.1 km/h 6.4 mph /  10.3 km/h 45 % 0.0 in /  0 mm
20:37 31.2 °F /  -0.4 °C 18.2 °F /  -7.7 °C 1016.1 in /  34405.1 hPa ESE 1.6 mph /  2.6 km/h 4.8 mph /  7.7 km/h 46 % 0.0 in /  0 mm
20:42 31.1 °F /  -0.5 °C 18.5 °F /  -7.5 °C 1016.1 in /  34405.1 hPa East 3.2 mph /  5.1 km/h 4.8 mph /  7.7 km/h 47 % 0.0 in /  0 mm
20:52 30.4 °F /  -0.9 °C 18.5 °F /  -7.5 °C 1016.1 in /  34405.1 hPa ENE 3.2 mph /  5.1 km/h 8.0 mph /  12.9 km/h 49 % 0.0 in /  0 mm
20:57 30.2 °F /  -1 °C 18.9 °F /  -7.3 °C 1016.5 in /  34418.7 hPa ENE 3.2 mph /  5.1 km/h 8.0 mph /  12.9 km/h 51 % 0.0 in /  0 mm
21:02 29.9 °F /  -1.2 °C 18.7 °F /  -7.4 °C 1016.5 in /  34418.7 hPa ENE 1.6 mph /  2.6 km/h 8.0 mph /  12.9 km/h 51 % 0.0 in /  0 mm
21:07 29.9 °F /  -1.2 °C 19.0 °F /  -7.2 °C 1016.5 in /  34418.7 hPa Calm   4.8 mph /  7.7 km/h 52 % 0.0 in /  0 mm
21:12 30.3 °F /  -0.9 °C 19.3 °F /  -7.1 °C 1016.5 in /  34418.7 hPa Calm   3.2 mph /  5.1 km/h 52 % 0.0 in /  0 mm
21:17 29.9 °F /  -1.2 °C 18.7 °F /  -7.4 °C 1016.5 in /  34418.7 hPa Calm   1.6 mph /  2.6 km/h 51 % 0.0 in /  0 mm
21:22 29.8 °F /  -1.2 °C 18.3 °F /  -7.6 °C 1016.5 in /  34418.7 hPa Calm   1.6 mph /  2.6 km/h 50 % 0.0 in /  0 mm
21:32 29.3 °F /  -1.5 °C 18.1 °F /  -7.7 °C 1016.1 in /  34405.1 hPa East 1.6 mph /  2.6 km/h 1.6 mph /  2.6 km/h 51 % 0.0 in /  0 mm
21:37 28.9 °F /  -1.7 °C 18.1 °F /  -7.7 °C 1016.5 in /  34418.7 hPa ENE 1.6 mph /  2.6 km/h 3.2 mph /  5.1 km/h 52 % 0.0 in /  0 mm
21:42 28.4 °F /  -2 °C 18.2 °F /  -7.7 °C 1016.5 in /  34418.7 hPa Calm   3.2 mph /  5.1 km/h 54 % 0.0 in /  0 mm
21:47 27.7 °F /  -2.4 °C 18.1 °F /  -7.7 °C 1016.5 in /  34418.7 hPa Calm   3.2 mph /  5.1 km/h 56 % 0.0 in /  0 mm
21:52 27.0 °F /  -2.8 °C 18.0 °F /  -7.8 °C 1016.5 in /  34418.7 hPa Calm   1.6 mph /  2.6 km/h 58 % 0.0 in /  0 mm
22:02 26.3 °F /  -3.2 °C 18.2 °F /  -7.7 °C 1016.5 in /  34418.7 hPa WNW 1.6 mph /  2.6 km/h 3.2 mph /  5.1 km/h 61 % 0.0 in /  0 mm
22:07 26.1 °F /  -3.3 °C 18.0 °F /  -7.8 °C 1016.5 in /  34418.7 hPa Calm   3.2 mph /  5.1 km/h 61 % 0.0 in /  0 mm
22:12 25.9 °F /  -3.4 °C 17.8 °F /  -7.9 °C 1016.5 in /  34418.7 hPa WNW 1.6 mph /  2.6 km/h 3.2 mph /  5.1 km/h 61 % 0.0 in /  0 mm
22:17 25.8 °F /  -3.4 °C 17.7 °F /  -7.9 °C 1016.8 in /  34428.8 hPa WNW 1.6 mph /  2.6 km/h 3.2 mph /  5.1 km/h 61 % 0.0 in /  0 mm
22:22 25.8 °F /  -3.4 °C 18.0 °F /  -7.8 °C 1016.8 in /  34428.8 hPa WNW 1.6 mph /  2.6 km/h 3.2 mph /  5.1 km/h 62 % 0.0 in /  0 mm
22:32 25.4 °F /  -3.7 °C 18.1 °F /  -7.7 °C 1016.8 in /  34428.8 hPa Calm   3.2 mph /  5.1 km/h 64 % 0.0 in /  0 mm
22:37 25.4 °F /  -3.7 °C 18.1 °F /  -7.7 °C 1016.8 in /  34428.8 hPa Calm   1.6 mph /  2.6 km/h 64 % 0.0 in /  0 mm
22:42 25.3 °F /  -3.7 °C 18.0 °F /  -7.8 °C 1016.8 in /  34428.8 hPa Calm   1.6 mph /  2.6 km/h 64 % 0.0 in /  0 mm
22:47 25.2 °F /  -3.8 °C 18.2 °F /  -7.7 °C 1016.8 in /  34428.8 hPa WNW 1.6 mph /  2.6 km/h 1.6 mph /  2.6 km/h 65 % 0.0 in /  0 mm
22:52 24.7 °F /  -4.1 °C 18.2 °F /  -7.7 °C 1016.8 in /  34428.8 hPa WNW 1.6 mph /  2.6 km/h 3.2 mph /  5.1 km/h 67 % 0.0 in /  0 mm
22:57 24.3 °F /  -4.3 °C 18.0 °F /  -7.8 °C 1016.8 in /  34428.8 hPa Calm   3.2 mph /  5.1 km/h 68 % 0.0 in /  0 mm
23:02 24.3 °F /  -4.3 °C 17.8 °F /  -7.9 °C 1016.8 in /  34428.8 hPa Calm   3.2 mph /  5.1 km/h 67 % 0.0 in /  0 mm
23:12 24.2 °F /  -4.3 °C 17.7 °F /  -7.9 °C 1016.8 in /  34428.8 hPa WNW 1.6 mph /  2.6 km/h 3.2 mph /  5.1 km/h 67 % 0.0 in /  0 mm
23:17 23.7 °F /  -4.6 °C 17.7 °F /  -7.9 °C 1016.8 in /  34428.8 hPa Calm   3.2 mph /  5.1 km/h 69 % 0.0 in /  0 mm
23:22 23.6 °F /  -4.7 °C 17.6 °F /  -8 °C 1016.8 in /  34428.8 hPa Calm   3.2 mph /  5.1 km/h 69 % 0.0 in /  0 mm
23:27 23.7 °F /  -4.6 °C 17.7 °F /  -7.9 °C 1016.8 in /  34428.8 hPa Calm   3.2 mph /  5.1 km/h 69 % 0.0 in /  0 mm
23:32 23.7 °F /  -4.6 °C 17.4 °F /  -8.1 °C 1016.8 in /  34428.8 hPa Calm   3.2 mph /  5.1 km/h 68 % 0.0 in /  0 mm
23:37 23.6 °F /  -4.7 °C 17.6 °F /  -8 °C 1016.8 in /  34428.8 hPa Calm   1.6 mph /  2.6 km/h 69 % 0.0 in /  0 mm
23:42 23.6 °F /  -4.7 °C 17.6 °F /  -8 °C 1016.8 in /  34428.8 hPa Calm     69 % 0.0 in /  0 mm
23:52 23.5 °F /  -4.7 °C 17.5 °F /  -8.1 °C 1017.2 in /  34442.4 hPa Calm     69 % 0.0 in /  0 mm
23:57 23.3 °F /  -4.8 °C 17.5 °F /  -8.1 °C 1017.2 in /  34442.4 hPa Calm     70 % 0.0 in /  0 mm
Meteo18
Compliments of Weather Underground - 4 mb

Script developed by  Jim McMurry - jmcmurry@mwt.net Adapted for the template by  Wim van der Kuil - Leuven-Template.eu

You find our weather info also at:

European Weather Network

Weather Underground

Equipment we use:

Weather-station
Davis Vue

Weather-program
Meteobridge

Weather-server
Raspberry PI 2 B+

Provider
1 and 1

Davis Vue

Meteobridge

Raspberry PI 2 B+

1 and 1